NC28 weather

Meadstown Airstrip
Elizabeth City, North Carolina, United States

Public forecast

Using degrees Fahrenheit for public forecast. Weather courtesy of forecast.io.

METAR (pilot weather report)

Closest report is Elizabeth City Regional Airport & Coast Guard Air Station, 4.7 nm (8.7 km) NE. Retrieved 2019/04/19 03:54 UTC (34 minutes ago):

KECG 190354Z AUTO 17007KT 10SM CLR 20/16 A2999 RMK AO2 SLP156 T02000156

TAF (pilot weather forecast)

Closest forecast is Elizabeth City Regional Airport & Coast Guard Air Station, 4.7 nm (8.7 km) NE. Retrieved 2019/04/19 04:24 UTC (4 minutes ago):

TAF KECG 190416Z 1904/1924 17007KT P6SM SKC FM190500 18012KT P6SM OVC020 FM191400 18018G27KT P6SM SCT015 OVC100 FM191600 18019G28KT P6SM SCT015 OVC040 FM191800 18021G32KT P6SM OVC030